Have a Safe July 4th! 

Flight Track Log - Related Links

Times and Time Zones

All times are in EDT time to prevent confusion due to time zone crossing. See the ASQ6151 flight status page for this flight to view local times or setup timezone preferences in your user account.

Time Position Orientation Groundspeed Altitude Reporting Facility
EDT Latitude Longitude Course Direction KTS MPH feet Rate Location/Type
Mon 06:00:27 PM 32.1647 -81.2778 North 214 246 3,200  Level Jacksonville Center
Mon 06:01:27 PM 32.2142 -81.2425 31° Northeast 214 246 5,100 2,000 Climbing Jacksonville Center
Mon 06:02:27 PM 32.2703 -81.2069 28° Northeast 244 281 7,200 1,900 Climbing Jacksonville Center
Mon 06:03:27 PM 32.3389 -81.1911 11° North 244 281 8,900 1,700 Climbing Jacksonville Center
Mon 06:04:27 PM 32.4206 -81.2117 348° North 259 298 10,600 1,388 Climbing Jacksonville Center
Mon 06:05:00 PM 32.6010 -81.1500 North  Level FlightAware Approximate
Mon 06:05:28 PM 32.4917 -81.2275 349° North 286 329 11,700  Level Jacksonville Center
Mon 06:06:27 PM 32.5917 -81.2183 North 307 353 13,000 1,261 Climbing Jacksonville Center
Mon 06:07:27 PM 32.6750 -81.2069 North 318 366 14,200 1,250 Climbing Jacksonville Center
Mon 06:08:27 PM 32.7672 -81.2200 353° North 326 375 15,500 1,300 Climbing Jacksonville Center
Mon 06:09:27 PM 32.8508 -81.2408 348° North 326 375 16,800 1,250 Climbing Jacksonville Center
Mon 06:10:27 PM 32.9431 -81.2589 351° North 326 375 18,000 1,250 Climbing Jacksonville Center
Mon 06:11:27 PM 33.0331 -81.2819 348° North 326 375 19,300 1,300 Climbing Jacksonville Center
Mon 06:12:27 PM 33.1211 -81.3053 347° North 326 375 20,600 1,300 Climbing Jacksonville Center
Mon 06:13:27 PM 33.2089 -81.3236 350° North 321 369 21,900 1,300 Climbing Jacksonville Center
Mon 06:14:27 PM 33.3011 -81.3467 348° North 321 369 23,200 1,350 Climbing Jacksonville Center
Mon 06:15:27 PM 33.3911 -81.3650 350° North 321 369 24,600 1,350 Climbing Jacksonville Center
Mon 06:16:27 PM 33.4789 -81.3886 347° North 321 369 25,900 1,300 Climbing Jacksonville Center
Mon 06:17:27 PM 33.5647 -81.4094 349° North 315 362 27,200 1,150 Climbing Jacksonville Center
Mon 06:18:27 PM 33.6444 -81.4506 337° Northwest 310 357 28,200 1,000 Climbing Jacksonville Center
Mon 06:19:27 PM 33.7200 -81.4917 336° Northwest 305 351 29,200 1,000 Climbing Jacksonville Center
Mon 06:20:27 PM 33.7978 -81.5331 336° Northwest 305 351 30,200 1,038 Climbing Jacksonville Center
Mon 06:22:32 PM 33.9689 -81.6267 336° Northwest 299 344 32,400 1,038 Climbing Atlanta Center
Mon 06:23:32 PM 34.0489 -81.6669 337° Northwest 305 351 33,400 800 Climbing Atlanta Center
Mon 06:24:32 PM 34.1311 -81.7125 335° Northwest 311 358 34,000 300 Climbing Atlanta Center
Mon 06:25:32 PM 34.2178 -81.7603 335° Northwest 325 374 34,000  Level Atlanta Center
Mon 06:26:32 PM 34.3103 -81.8106 336° Northwest 340 391 34,000  Level Atlanta Center
Mon 06:27:32 PM 34.4053 -81.8608 336° Northwest 352 405 34,000  Level Atlanta Center
Mon 06:28:32 PM 34.5044 -81.9189 334° Northwest 374 430 34,000  Level Atlanta Center
Mon 06:29:32 PM 34.6011 -81.9719 336° Northwest 381 438 34,000  Level Atlanta Center
Mon 06:30:32 PM 34.7022 -82.0250 337° Northwest 387 445 34,000  Level Atlanta Center
Mon 06:31:32 PM 34.7972 -82.0808 334° Northwest 381 438 34,000  Level Atlanta Center
Mon 06:32:32 PM 34.8875 -82.1269 337° Northwest 376 433 34,000  Level Atlanta Center
Mon 06:33:32 PM 34.9803 -82.1806 335° Northwest 366 421 34,000  Level Atlanta Center
Mon 06:34:32 PM 35.0686 -82.2294 336° Northwest 355 409 34,000  Level Atlanta Center
Mon 06:35:31 PM 35.1483 -82.2708 337° Northwest 350 403 34,000  Level Atlanta Center
Mon 06:36:32 PM 35.2494 -82.3297 335° Northwest 350 403 34,000  Level Atlanta Center
Mon 06:37:32 PM 35.3397 -82.3789 336° Northwest 350 403 34,000  Level Atlanta Center
Mon 06:38:32 PM 35.4303 -82.4281 336° Northwest 350 403 34,000  Level Atlanta Center
Mon 06:39:32 PM 35.5122 -82.4747 335° Northwest 350 403 34,000  Level Atlanta Center
Mon 06:40:32 PM 35.6047 -82.5267 335° Northwest 358 412 34,000  Level Atlanta Center
Mon 06:41:32 PM 35.7033 -82.5811 336° Northwest 358 412 34,000  Level Atlanta Center
Mon 06:42:32 PM 35.7936 -82.6306 336° Northwest 358 412 34,000  Level Atlanta Center
Mon 06:43:32 PM 35.8881 -82.6853 335° Northwest 363 418 34,000  Level Atlanta Center
Mon 06:44:32 PM 35.9806 -82.7378 335° Northwest 363 418 34,000  Level Atlanta Center
Mon 06:45:32 PM 36.0750 -82.7903 336° Northwest 363 418 34,000  Level Atlanta Center
Mon 06:46:32 PM 36.1631 -82.8428 334° Northwest 363 418 34,000  Level Atlanta Center
Mon 06:48:06 PM 36.3033 -82.9197 336° Northwest 357 411 34,000  Level Indianapolis Center
Mon 06:49:08 PM 36.3931 -82.9711 335° Northwest 354 407 34,000  Level Indianapolis Center
Mon 06:50:10 PM 36.4822 -83.0217 335° Northwest 351 404 34,000  Level Indianapolis Center
Mon 06:51:12 PM 36.5708 -83.0733 335° Northwest 350 403 34,000  Level Indianapolis Center
Mon 06:52:15 PM 36.6736 -83.1339 335° Northwest 348 400 34,000  Level Indianapolis Center
Mon 06:53:17 PM 36.7622 -83.1850 335° Northwest 347 399 34,000  Level Indianapolis Center
Mon 06:54:19 PM 36.8511 -83.2364 335° Northwest 349 402 34,000  Level Indianapolis Center
Mon 06:55:21 PM 36.9400 -83.2869 336° Northwest 348 400 34,000  Level Indianapolis Center
Mon 06:56:23 PM 37.0275 -83.3389 335° Northwest 346 398 34,000  Level Indianapolis Center
Mon 06:57:25 PM 37.1153 -83.3897 335° Northwest 345 397 34,000  Level Indianapolis Center
Mon 06:58:27 PM 37.2019 -83.4408 335° Northwest 345 397 34,000  Level Indianapolis Center
Mon 06:59:29 PM 37.3031 -83.5014 335° Northwest 343 395 34,000  Level Indianapolis Center
Mon 07:00:31 PM 37.3894 -83.5519 335° Northwest 341 392 34,000  Level Indianapolis Center
Mon 07:01:33 PM 37.4775 -83.6036 335° Northwest 347 399 34,000  Level Indianapolis Center
Mon 07:02:35 PM 37.5644 -83.6542 335° Northwest 344 396 34,000  Level Indianapolis Center
Mon 07:03:37 PM 37.6517 -83.7058 335° Northwest 346 398 34,000  Level Indianapolis Center
Mon 07:04:39 PM 37.7506 -83.7675 334° Northwest 342 394 34,000  Level Indianapolis Center
Mon 07:05:41 PM 37.8381 -83.8194 335° Northwest 345 397 34,000  Level Indianapolis Center
Mon 07:06:43 PM 37.9253 -83.8708 335° Northwest 344 396 34,000  Level Indianapolis Center
Mon 07:07:45 PM 38.0100 -83.9281 332° Northwest 345 397 34,000  Level Indianapolis Center
Mon 07:08:47 PM 38.0958 -83.9850 332° Northwest 345 397 34,000  Level Indianapolis Center
Mon 07:09:49 PM 38.1797 -84.0431 331° Northwest 344 396 34,000  Level Indianapolis Center
Mon 07:10:51 PM 38.2775 -84.1083 332° Northwest 339 390 34,000  Level Indianapolis Center
Mon 07:11:53 PM 38.3589 -84.1639 332° Northwest 333 383 34,000  Level Indianapolis Center
Mon 07:12:55 PM 38.4386 -84.2194 331° Northwest 326 375 34,000  Level Indianapolis Center
Mon 07:13:57 PM 38.5175 -84.2747 331° Northwest 324 373 34,000  Level Indianapolis Center
Mon 07:14:59 PM 38.5958 -84.3281 332° Northwest 318 366 34,000  Level Indianapolis Center
Mon 07:16:01 PM 38.6789 -84.3861 331° Northwest 316 364 34,000  Level Indianapolis Center
Mon 07:17:03 PM 38.7564 -84.4406 331° Northwest 315 362 34,000  Level Indianapolis Center
Mon 07:18:05 PM 38.8358 -84.4956 332° Northwest 321 369 34,000  Level Indianapolis Center
Mon 07:19:07 PM 38.9189 -84.5531 332° Northwest 334 384 34,000 -48 Level Indianapolis Center
Mon 07:20:09 PM 39.0061 -84.6139 332° Northwest 350 403 33,900  Descending Indianapolis Center
Mon 07:21:10 PM 39.1050 -84.6831 332° Northwest 344 396 34,000 -341 Climbing Indianapolis Center
Mon 07:22:12 PM 39.1889 -84.7408 332° Northwest 339 390 33,200 -1,161 Descending Indianapolis Center
Mon 07:23:14 PM 39.2719 -84.8017 330° Northwest 339 390 31,600 -1,500 Descending Indianapolis Center
Mon 07:24:16 PM 39.3606 -84.8619 332° Northwest 353 406 30,100 -1,355 Descending Indianapolis Center
Mon 07:25:18 PM 39.4397 -84.9181 331° Northwest 361 415 28,800 -1,016 Descending Indianapolis Center
Mon 07:26:20 PM 39.5461 -84.9942 331° Northwest 365 420 28,000 -387 Descending Indianapolis Center
Mon 07:27:22 PM 39.6356 -85.0569 332° Northwest 368 423 28,000  Level Indianapolis Center
Mon 07:28:24 PM 39.7233 -85.1211 331° Northwest 365 420 28,000  Level Indianapolis Center
Mon 07:29:25 PM 39.8147 -85.1864 331° Northwest 373 429 28,000  Level Indianapolis Center
Mon 07:30:27 PM 39.9039 -85.2508 331° Northwest 370 426 28,000 -484 Level Indianapolis Center
Mon 07:31:29 PM 40.0133 -85.3283 332° Northwest 374 430 27,000 -851 Descending Indianapolis Center
Mon 07:32:48 PM 40.1272 -85.4114 331° Northwest 392 451 26,000 -426 Descending Chicago Center
Mon 07:33:50 PM 40.2025 -85.5086 315° West 385 443 26,000  Level Chicago Center
Mon 07:34:52 PM 40.2889 -85.6297 313° West 383 441 26,000  Level Chicago Center
Mon 07:35:54 PM 40.3597 -85.7294 313° West 378 435 26,000  Level Chicago Center
Mon 07:36:56 PM 40.4306 -85.8319 312° West 382 440 26,000 -435 Level Chicago Center
Mon 07:37:58 PM 40.5031 -85.9344 313° West 384 442 25,100 -919 Descending Chicago Center
Mon 07:39:00 PM 40.5756 -86.0378 313° West 386 444 24,100 -1,016 Descending Chicago Center
Mon 07:40:02 PM 40.6622 -86.1644 312° West 390 449 23,000 -532 Descending Chicago Center
Mon 07:41:04 PM 40.7292 -86.2614 312° West 385 443 23,000  Level Chicago Center
Mon 07:42:06 PM 40.7983 -86.3625 312° West 376 433 23,000  Level Chicago Center
Mon 07:43:08 PM 40.8689 -86.4628 313° West 373 429 23,000  Level Chicago Center
Mon 07:44:09 PM 40.9403 -86.5669 312° West 378 435 23,000 -780 Level Chicago Center
Mon 07:45:11 PM 41.0256 -86.6925 312° West 380 437 21,400 -2,226 Descending Chicago Center
Mon 07:46:13 PM 41.0936 -86.7875 314° West 360 414 18,400 -2,613 Descending Chicago Center
Mon 07:47:15 PM 41.1564 -86.8822 311° West 348 400 16,000 -2,129 Descending Chicago Center
Mon 07:48:17 PM 41.2211 -86.9769 312° West 348 400 14,000 -1,935 Descending Chicago Center
Mon 07:49:19 PM 41.2833 -87.0728 311° West 346 398 12,000 -1,452 Descending Chicago Center
Mon 07:50:21 PM 41.3569 -87.1817 312° West 337 388 11,000 -484 Descending Chicago Center
Mon 07:51:23 PM 41.4242 -87.2653 317° Northwest 333 383 11,000 -170 Level Chicago Center
Mon 07:52:07 PM 41.4667 -87.3167 318° Northwest 323 372 10,700 -545 Descending Chicago TRACON
Mon 07:53:13 PM 41.5500 -87.4167 318° Northwest 324 373 10,000 -333 Descending Chicago TRACON
Mon 07:54:13 PM 41.6167 -87.4833 323° Northwest 317 365 10,000  Level Chicago TRACON
Mon 07:54:29 PM 41.6261 -87.4947 318° Northwest 319 367 10,000  Level Chicago Center
Mon 07:55:31 PM 41.7053 -87.5833 320° Northwest 315 362 10,000  Level Chicago Center
Mon 07:56:07 PM 41.7500 -87.6333 320° Northwest 320 368 10,000  Level Chicago TRACON
Mon 07:57:07 PM 41.8167 -87.7000 323° Northwest 321 369 10,000  Level Chicago TRACON
Mon 07:58:01 PM 41.8500 -87.7833 298° West 286 329 10,000 -579 Level Chicago TRACON
Mon 07:59:01 PM 41.8833 -87.8667 298° West 241 277 8,900 -1,263 Descending Chicago TRACON
Mon 07:59:55 PM 41.9167 -87.9500 298° West 262 302 7,600 -2,050 Descending Chicago TRACON
Mon 08:01:01 PM 41.9667 -88.0167 315° West 250 288 4,800 -2,362 Descending Chicago TRACON
Mon 08:02:02 PM 42.0167 -88.0000 14° North 250 288 2,600 -1,835 Descending Chicago TRACON
Mon 08:03:02 PM 42.0000 -87.9500 114° Southeast 161 185 1,100 -1,500 Descending Chicago TRACON
Mon 08:05:00 PM 41.9817 -87.9067 312° West  Level Estimated

Login

Don't have an account? Register now (free) for customized features, flight alerts, and more!